createdAt,value
2023-03-27T00:00:19.952Z,74.77
2023-03-27T00:01:19.991Z,75.05
2023-03-27T00:02:20.025Z,75.19
2023-03-27T00:03:20.032Z,74.84
2023-03-27T00:04:19.944Z,74.46
2023-03-27T00:05:19.925Z,74.67
2023-03-27T00:06:19.900Z,74.98
2023-03-27T00:07:19.945Z,75.19
2023-03-27T00:08:19.890Z,75.09
2023-03-27T00:09:19.892Z,75.19
2023-03-27T00:10:19.847Z,75.60
2023-03-27T00:11:19.844Z,75.81
2023-03-27T00:12:19.853Z,75.50
2023-03-27T00:13:19.827Z,75.19
2023-03-27T00:14:19.826Z,75.19
2023-03-27T00:15:19.905Z,74.98
2023-03-27T00:16:19.815Z,75.29
2023-03-27T00:17:19.797Z,75.60
2023-03-27T00:18:19.765Z,75.60
2023-03-27T00:19:19.800Z,74.98
2023-03-27T00:20:19.926Z,74.98
2023-03-27T00:21:19.741Z,74.98
2023-03-27T00:22:19.701Z,75.09
2023-03-27T00:23:20.700Z,75.40
2023-03-27T00:24:20.669Z,75.50
2023-03-27T00:25:19.715Z,75.40
2023-03-27T00:26:19.773Z,75.40
2023-03-27T00:27:19.688Z,75.19
2023-03-27T00:28:20.615Z,74.36
2023-03-27T00:29:20.639Z,74.46
2023-03-27T00:30:19.658Z,74.57
2023-03-27T00:31:19.700Z,74.36
2023-03-27T00:32:19.598Z,74.46
2023-03-27T00:33:19.640Z,73.84
2023-03-27T00:34:19.578Z,73.94
2023-03-27T00:35:19.633Z,73.74
2023-03-27T00:36:19.564Z,73.74
2023-03-27T00:37:20.455Z,73.94
2023-03-27T00:38:19.568Z,73.63
2023-03-27T00:39:19.579Z,73.84
2023-03-27T00:40:19.494Z,74.15
2023-03-27T00:41:19.559Z,74.05
2023-03-27T00:42:19.518Z,73.94
2023-03-27T00:43:19.507Z,73.84
2023-03-27T00:44:19.461Z,73.84
2023-03-27T00:45:19.484Z,73.74
2023-03-27T00:46:19.454Z,73.88
2023-03-27T00:47:19.468Z,73.88
2023-03-27T00:48:19.430Z,74.40
2023-03-27T00:49:19.466Z,74.50
2023-03-27T00:50:19.392Z,74.40
2023-03-27T00:51:19.397Z,74.15
2023-03-27T00:52:19.362Z,74.26
2023-03-27T00:53:19.419Z,74.05
2023-03-27T00:54:19.380Z,73.98
2023-03-27T00:55:19.367Z,73.77
2023-03-27T00:56:19.349Z,73.77
2023-03-27T00:57:19.327Z,74.19
2023-03-27T00:58:19.315Z,74.29
2023-03-27T00:59:19.318Z,74.08
2023-03-27T01:00:19.324Z,73.88
2023-03-27T01:01:19.344Z,73.77
2023-03-27T01:02:20.262Z,73.67
2023-03-27T01:03:20.128Z,73.57
2023-03-27T01:04:19.256Z,73.67
2023-03-27T01:05:19.253Z,73.46
2023-03-27T01:06:19.236Z,73.57
2023-03-27T01:07:19.196Z,73.25
2023-03-27T01:08:19.241Z,73.05
2023-03-27T01:09:20.334Z,72.94
2023-03-27T01:10:20.155Z,72.94
2023-03-27T01:11:20.144Z,73.15
2023-03-27T01:12:19.171Z,73.05
2023-03-27T01:13:19.161Z,73.46
2023-03-27T01:14:19.169Z,73.77
2023-03-27T01:15:19.113Z,73.46
2023-03-27T01:16:19.202Z,73.39
2023-03-27T01:17:19.098Z,73.91
2023-03-27T01:18:19.135Z,73.80
2023-03-27T01:19:19.071Z,74.01
2023-03-27T01:20:19.078Z,74.11
2023-03-27T01:21:19.070Z,73.49
2023-03-27T01:22:19.077Z,73.49
2023-03-27T01:23:58.656Z,73.91
2023-03-27T01:24:20.058Z,73.60
2023-03-27T01:25:19.033Z,73.49
2023-03-27T01:26:19.048Z,73.49
2023-03-27T01:27:20.969Z,73.49
2023-03-27T01:28:19.014Z,73.28
2023-03-27T01:29:18.982Z,72.97
2023-03-27T01:30:18.984Z,72.77
2023-03-27T01:31:25.731Z,72.77
2023-03-27T01:32:19.926Z,73.18
2023-03-27T01:33:18.918Z,72.77
2023-03-27T01:34:18.922Z,72.77
2023-03-27T01:35:18.956Z,72.80
2023-03-27T01:36:18.900Z,72.66
2023-03-27T01:37:18.898Z,73.08
2023-03-27T01:38:18.885Z,72.97
2023-03-27T01:39:18.863Z,72.77
2023-03-27T01:40:18.871Z,72.97
2023-03-27T01:41:18.824Z,72.77
2023-03-27T01:42:18.858Z,72.97
2023-03-27T01:43:18.802Z,72.97
2023-03-27T01:44:18.840Z,72.97
2023-03-27T01:45:18.798Z,72.97
2023-03-27T01:46:18.846Z,72.87
2023-03-27T01:47:18.765Z,73.18
2023-03-27T01:48:19.733Z,73.53
2023-03-27T01:49:18.773Z,73.53
2023-03-27T01:50:18.755Z,73.63
2023-03-27T01:51:18.720Z,73.94
2023-03-27T01:52:19.722Z,73.63
2023-03-27T01:53:18.724Z,73.74
2023-03-27T01:54:18.724Z,73.74
2023-03-27T01:55:18.703Z,73.53
2023-03-27T01:56:18.693Z,73.43
2023-03-27T01:57:20.612Z,73.22
2023-03-27T01:58:18.683Z,73.22
2023-03-27T01:59:18.631Z,73.11
2023-03-27T02:00:19.711Z,73.32
2023-03-27T02:01:18.619Z,73.53
2023-03-27T02:02:18.620Z,73.74
2023-03-27T02:03:18.612Z,73.84
2023-03-27T02:04:18.613Z,73.74
2023-03-27T02:05:18.631Z,73.53
2023-03-27T02:06:18.596Z,73.63
2023-03-27T02:07:18.551Z,74.05
2023-03-27T02:08:18.584Z,73.97
2023-03-27T02:09:18.548Z,73.94
2023-03-27T02:10:18.530Z,73.63
2023-03-27T02:11:18.540Z,73.56
2023-03-27T02:12:18.504Z,73.97
2023-03-27T02:13:18.556Z,73.97
2023-03-27T02:14:18.525Z,74.29
2023-03-27T02:15:23.862Z,74.29
2023-03-27T02:16:19.519Z,73.97
2023-03-27T02:17:18.422Z,74.08
2023-03-27T02:18:18.470Z,74.29
2023-03-27T02:19:18.439Z,74.49
2023-03-27T02:20:18.433Z,74.39
2023-03-27T02:21:18.392Z,74.60
2023-03-27T02:22:18.398Z,74.60
2023-03-27T02:23:18.406Z,74.70
2023-03-27T02:24:18.395Z,74.91
2023-03-27T02:25:18.350Z,75.01
2023-03-27T02:26:18.386Z,75.12
2023-03-27T02:27:18.325Z,75.32
2023-03-27T02:28:19.316Z,75.32
2023-03-27T02:29:19.271Z,75.57
2023-03-27T02:30:18.309Z,75.78
2023-03-27T02:31:33.101Z,75.78
2023-03-27T02:32:19.510Z,75.57
2023-03-27T02:33:18.306Z,75.67
2023-03-27T02:34:18.295Z,75.46
2023-03-27T02:35:18.240Z,75.67
2023-03-27T02:36:18.311Z,75.88
2023-03-27T02:37:18.313Z,76.09
2023-03-27T02:38:18.238Z,75.88
2023-03-27T02:39:18.204Z,75.78
2023-03-27T02:40:18.229Z,76.02
2023-03-27T02:41:18.200Z,76.12
2023-03-27T02:42:18.192Z,76.02
2023-03-27T02:43:18.144Z,76.02
2023-03-27T02:44:19.160Z,75.81
2023-03-27T02:45:18.142Z,75.81
2023-03-27T02:46:18.215Z,75.67
2023-03-27T02:47:18.125Z,75.67
2023-03-27T02:48:18.136Z,75.92
2023-03-27T02:49:18.082Z,76.23
2023-03-27T02:50:18.115Z,76.33
2023-03-27T02:51:18.076Z,75.92
2023-03-27T02:52:18.088Z,75.71
2023-03-27T02:53:18.052Z,75.60
2023-03-27T02:54:18.065Z,75.50
2023-03-27T02:55:18.030Z,75.60
2023-03-27T02:56:18.051Z,75.60
2023-03-27T02:57:19.024Z,75.71
2023-03-27T02:58:18.986Z,75.92
2023-03-27T02:59:18.963Z,76.02
2023-03-27T03:00:18.010Z,76.19
2023-03-27T03:01:17.980Z,76.23
2023-03-27T03:02:18.013Z,76.33
2023-03-27T03:03:18.273Z,76.02
2023-03-27T03:04:17.979Z,76.43
2023-03-27T03:05:17.927Z,76.75
2023-03-27T03:06:17.970Z,76.75
2023-03-27T03:07:17.963Z,76.75
2023-03-27T03:08:17.922Z,76.75
2023-03-27T03:09:17.867Z,76.75
2023-03-27T03:10:17.896Z,76.75
2023-03-27T03:11:17.885Z,76.95
2023-03-27T03:12:17.870Z,76.95
2023-03-27T03:13:17.832Z,77.06
2023-03-27T03:14:18.022Z,77.06
2023-03-27T03:15:17.820Z,77.16
2023-03-27T03:16:17.867Z,76.85
2023-03-27T03:17:17.807Z,76.85
2023-03-27T03:18:17.798Z,77.06
2023-03-27T03:19:17.770Z,77.16
2023-03-27T03:20:17.792Z,77.30
2023-03-27T03:21:17.771Z,77.30
2023-03-27T03:22:17.790Z,77.40
2023-03-27T03:23:17.740Z,77.51
2023-03-27T03:24:18.339Z,77.51
2023-03-27T03:25:17.718Z,77.51
2023-03-27T03:26:17.725Z,77.51
2023-03-27T03:27:17.698Z,77.30
2023-03-27T03:28:17.691Z,77.40
2023-03-27T03:29:17.701Z,77.27
2023-03-27T03:30:17.807Z,77.09
2023-03-27T03:31:17.683Z,77.20
2023-03-27T03:32:17.635Z,77.30
2023-03-27T03:33:17.612Z,77.09
2023-03-27T03:34:17.641Z,76.99
2023-03-27T03:35:17.612Z,77.09
2023-03-27T03:36:17.597Z,76.99
2023-03-27T03:37:17.624Z,77.20
2023-03-27T03:38:18.278Z,77.20
2023-03-27T03:39:17.616Z,77.20
2023-03-27T03:40:19.034Z,77.20
2023-03-27T03:41:17.542Z,77.30
2023-03-27T03:42:22.373Z,77.20
2023-03-27T03:43:18.552Z,77.40
2023-03-27T03:44:17.534Z,77.20
2023-03-27T03:45:17.514Z,77.30
2023-03-27T03:46:17.536Z,77.40
2023-03-27T03:47:17.671Z,77.09
2023-03-27T03:48:17.482Z,77.13
2023-03-27T03:49:17.469Z,77.20
2023-03-27T03:50:17.463Z,77.20
2023-03-27T03:51:17.408Z,77.09
2023-03-27T03:52:17.452Z,76.89
2023-03-27T03:53:17.389Z,76.89
2023-03-27T03:54:17.407Z,76.89
2023-03-27T03:55:18.367Z,76.89
2023-03-27T03:56:17.393Z,76.68
2023-03-27T03:57:17.467Z,76.68
2023-03-27T03:58:17.356Z,76.68
2023-03-27T03:59:17.337Z,76.57
2023-03-27T04:00:17.335Z,76.89
2023-03-27T04:01:17.322Z,77.13
2023-03-27T04:02:17.367Z,77.44
2023-03-27T04:03:17.329Z,77.34
2023-03-27T04:04:17.307Z,77.44
2023-03-27T04:05:17.245Z,77.44
2023-03-27T04:06:17.290Z,77.55
2023-03-27T04:07:17.250Z,77.65
2023-03-27T04:08:17.248Z,77.61
2023-03-27T04:09:17.206Z,77.30
2023-03-27T04:10:17.233Z,77.20
2023-03-27T04:11:17.198Z,76.89
2023-03-27T04:12:18.210Z,76.89
2023-03-27T04:13:17.170Z,77.20
2023-03-27T04:14:17.187Z,77.55
2023-03-27T04:15:17.139Z,77.72
2023-03-27T04:16:17.221Z,77.72
2023-03-27T04:17:17.122Z,77.72
2023-03-27T04:18:18.205Z,77.61
2023-03-27T04:19:17.103Z,77.51
2023-03-27T04:20:17.152Z,77.72
2023-03-27T04:21:17.108Z,77.61
2023-03-27T04:22:17.117Z,77.61
2023-03-27T04:23:17.075Z,77.83
2023-03-27T04:24:17.066Z,77.93
2023-03-27T04:25:17.034Z,78.24
2023-03-27T04:26:17.108Z,78.45
2023-03-27T04:27:17.045Z,78.55
2023-03-27T04:28:17.035Z,78.66
2023-03-27T04:29:17.010Z,78.66
2023-03-27T04:30:17.040Z,78.55
2023-03-27T04:31:17.023Z,78.55
2023-03-27T04:32:17.016Z,78.55
2023-03-27T04:33:16.970Z,78.66
2023-03-27T04:34:17.007Z,78.55
2023-03-27T04:35:16.950Z,78.66
2023-03-27T04:36:16.967Z,78.66
2023-03-27T04:37:17.878Z,78.76
2023-03-27T04:38:17.929Z,78.86
2023-03-27T04:39:16.918Z,78.97
2023-03-27T04:40:18.022Z,78.97
2023-03-27T04:41:16.890Z,79.07
2023-03-27T04:42:17.845Z,79.17
2023-03-27T04:43:16.873Z,79.38
2023-03-27T04:44:16.856Z,79.38
2023-03-27T04:45:16.823Z,79.28
2023-03-27T04:46:16.905Z,79.38
2023-03-27T04:47:16.843Z,79.38
2023-03-27T04:48:16.835Z,79.49
2023-03-27T04:49:16.818Z,79.49
2023-03-27T04:50:16.810Z,79.59
2023-03-27T04:51:16.767Z,79.80
2023-03-27T04:52:16.785Z,79.91
2023-03-27T04:53:16.755Z,80.05
2023-03-27T04:54:16.757Z,80.11
2023-03-27T04:55:16.753Z,80.22
2023-03-27T04:56:16.738Z,80.11
2023-03-27T04:57:16.870Z,80.11
2023-03-27T04:58:16.727Z,80.22
2023-03-27T04:59:16.682Z,80.26
2023-03-27T05:00:16.718Z,80.32
2023-03-27T05:01:16.754Z,80.22
2023-03-27T05:02:16.686Z,80.22
2023-03-27T05:03:16.741Z,80.11
2023-03-27T05:04:16.696Z,80.22
2023-03-27T05:05:16.637Z,80.74
2023-03-27T05:06:16.622Z,80.53
2023-03-27T05:07:16.629Z,80.22
2023-03-27T05:08:16.650Z,80.11
2023-03-27T05:09:16.566Z,80.01
2023-03-27T05:10:16.577Z,79.91
2023-03-27T05:11:16.530Z,79.80
2023-03-27T05:12:16.585Z,79.80
2023-03-27T05:13:16.600Z,79.69
2023-03-27T05:14:16.554Z,79.80
2023-03-27T05:15:16.510Z,79.80
2023-03-27T05:16:16.573Z,80.01
2023-03-27T05:17:16.469Z,80.01
2023-03-27T05:18:16.657Z,80.01
2023-03-27T05:19:16.441Z,79.80
2023-03-27T05:20:16.473Z,79.69
2023-03-27T05:21:16.427Z,79.69
2023-03-27T05:22:16.444Z,79.59
2023-03-27T05:23:16.500Z,79.45
2023-03-27T05:24:16.391Z,79.24
2023-03-27T05:25:16.427Z,79.24
2023-03-27T05:26:16.393Z,79.24
2023-03-27T05:27:16.386Z,79.24
2023-03-27T05:28:16.355Z,79.14
2023-03-27T05:29:16.389Z,79.14
2023-03-27T05:30:16.345Z,79.24
2023-03-27T05:31:16.426Z,79.35
2023-03-27T05:32:16.374Z,79.35
2023-03-27T05:33:16.370Z,79.35
2023-03-27T05:34:16.339Z,79.35
2023-03-27T05:35:16.343Z,79.45
2023-03-27T05:36:16.405Z,79.35
2023-03-27T05:37:16.399Z,79.35
2023-03-27T05:38:16.346Z,79.14
2023-03-27T05:39:16.256Z,79.03
2023-03-27T05:40:16.225Z,78.93
2023-03-27T05:41:16.312Z,78.93
2023-03-27T05:42:16.202Z,78.93
2023-03-27T05:43:16.227Z,78.83
2023-03-27T05:44:16.182Z,78.93
2023-03-27T05:45:16.197Z,79.03
2023-03-27T05:46:20.873Z,79.14
2023-03-27T05:47:17.192Z,79.14
2023-03-27T05:48:16.133Z,79.14
2023-03-27T05:49:16.175Z,79.14
2023-03-27T05:50:16.104Z,79.24
2023-03-27T05:51:16.152Z,79.14
2023-03-27T05:52:16.088Z,79.24
2023-03-27T05:53:16.121Z,79.14
2023-03-27T05:54:16.064Z,79.38
2023-03-27T05:55:16.102Z,79.59
2023-03-27T05:56:16.070Z,79.59
2023-03-27T05:57:16.095Z,79.55
2023-03-27T05:58:16.018Z,79.66
2023-03-27T05:59:16.067Z,79.55
2023-03-27T06:00:16.003Z,79.45
2023-03-27T06:01:16.005Z,79.35
2023-03-27T06:02:15.999Z,79.24
2023-03-27T06:03:16.144Z,79.24
2023-03-27T06:04:16.045Z,79.24
2023-03-27T06:05:16.008Z,79.35
2023-03-27T06:06:15.931Z,79.24
2023-03-27T06:07:15.950Z,79.14
2023-03-27T06:08:15.915Z,79.03
2023-03-27T06:09:15.959Z,78.89
2023-03-27T06:10:15.888Z,78.79
2023-03-27T06:11:15.910Z,78.79
2023-03-27T06:12:15.883Z,78.79
2023-03-27T06:13:15.880Z,78.69
2023-03-27T06:14:15.849Z,78.58
2023-03-27T06:15:15.880Z,78.48
2023-03-27T06:16:15.900Z,78.38
2023-03-27T06:17:15.860Z,78.34
2023-03-27T06:18:15.802Z,78.23
2023-03-27T06:19:15.819Z,78.23
2023-03-27T06:20:15.956Z,78.13
2023-03-27T06:21:15.802Z,78.23
2023-03-27T06:22:15.780Z,78.34
2023-03-27T06:23:15.790Z,78.34
2023-03-27T06:24:15.753Z,78.23
2023-03-27T06:25:15.748Z,78.03
2023-03-27T06:26:15.767Z,78.03
2023-03-27T06:27:15.762Z,78.13
2023-03-27T06:28:15.687Z,78.13
2023-03-27T06:29:15.710Z,78.23
2023-03-27T06:30:15.686Z,78.23
2023-03-27T06:31:15.686Z,78.23
2023-03-27T06:32:15.697Z,78.34
2023-03-27T06:33:15.690Z,78.34
2023-03-27T06:34:15.622Z,78.34
2023-03-27T06:35:15.729Z,78.30
2023-03-27T06:36:15.655Z,78.09
2023-03-27T06:37:15.625Z,78.23
2023-03-27T06:38:15.628Z,78.30
2023-03-27T06:39:15.603Z,78.34
2023-03-27T06:40:15.574Z,78.13
2023-03-27T06:41:15.589Z,78.20
2023-03-27T06:42:15.556Z,78.30
2023-03-27T06:43:15.556Z,78.20
2023-03-27T06:44:15.529Z,78.30
2023-03-27T06:45:15.774Z,78.41
2023-03-27T06:46:15.506Z,78.30
2023-03-27T06:47:15.615Z,78.41
2023-03-27T06:48:21.339Z,78.30
2023-03-27T06:49:16.508Z,78.44
2023-03-27T06:50:15.466Z,78.55
2023-03-27T06:51:15.468Z,78.75
2023-03-27T06:52:15.427Z,79.27
2023-03-27T06:53:25.926Z,79.83
2023-03-27T06:54:16.434Z,80.25
2023-03-27T06:55:15.437Z,80.46
2023-03-27T06:56:15.389Z,80.56
2023-03-27T06:57:15.457Z,80.35
2023-03-27T06:58:15.399Z,80.35
2023-03-27T06:59:15.419Z,80.46
2023-03-27T07:00:15.374Z,80.56
2023-03-27T07:01:15.374Z,80.77
2023-03-27T07:02:15.317Z,80.87
2023-03-27T07:03:15.341Z,80.73
2023-03-27T07:04:15.305Z,80.63
2023-03-27T07:05:15.335Z,80.52
2023-03-27T07:06:15.306Z,80.52
2023-03-27T07:07:15.304Z,80.42
2023-03-27T07:08:23.554Z,80.52
2023-03-27T07:09:16.289Z,80.52
2023-03-27T07:10:15.420Z,80.18
2023-03-27T07:11:15.418Z,79.65
2023-03-27T07:12:15.204Z,79.55
2023-03-27T07:13:15.470Z,79.65
2023-03-27T07:14:15.218Z,79.30
2023-03-27T07:15:15.202Z,78.89
2023-03-27T07:16:15.200Z,78.99
2023-03-27T07:17:15.219Z,78.89
2023-03-27T07:18:15.199Z,79.30
2023-03-27T07:19:15.145Z,79.20
2023-03-27T07:20:15.129Z,79.20
2023-03-27T07:21:15.149Z,79.10
2023-03-27T07:22:15.125Z,79.06
2023-03-27T07:23:15.115Z,78.86
2023-03-27T07:24:15.080Z,78.86
2023-03-27T07:25:15.101Z,78.86
2023-03-27T07:26:15.090Z,78.55
2023-03-27T07:27:15.102Z,78.41
2023-03-27T07:28:15.151Z,78.20
2023-03-27T07:29:15.050Z,78.09
2023-03-27T07:30:15.012Z,77.99
2023-03-27T07:31:31.636Z,78.20
2023-03-27T07:32:29.711Z,77.99
2023-03-27T07:33:16.086Z,77.89
2023-03-27T07:34:15.345Z,77.89
2023-03-27T07:35:15.000Z,77.99
2023-03-27T07:36:14.944Z,77.78
2023-03-27T07:37:14.972Z,77.58
2023-03-27T07:38:14.941Z,77.54
2023-03-27T07:39:14.928Z,77.54
2023-03-27T07:40:14.891Z,77.54
2023-03-27T07:41:14.955Z,77.37
2023-03-27T07:42:14.892Z,77.58
2023-03-27T07:43:14.910Z,77.33
2023-03-27T07:44:14.890Z,77.23
2023-03-27T07:45:14.877Z,77.02
2023-03-27T07:46:14.890Z,77.44
2023-03-27T07:47:14.881Z,77.19
2023-03-27T07:48:14.846Z,76.67
2023-03-27T07:49:14.844Z,76.67
2023-03-27T07:50:15.721Z,76.57
2023-03-27T07:51:14.833Z,76.36
2023-03-27T07:52:16.411Z,75.63
2023-03-27T07:53:33.526Z,75.53
2023-03-27T07:54:15.774Z,75.81
2023-03-27T07:55:14.788Z,75.50
2023-03-27T07:56:14.756Z,75.50
2023-03-27T07:57:14.797Z,75.29
2023-03-27T07:58:14.823Z,75.32
2023-03-27T07:59:14.711Z,75.22
2023-03-27T08:00:14.734Z,75.02
2023-03-27T08:01:14.706Z,75.02
2023-03-27T08:02:14.688Z,75.09
2023-03-27T08:03:14.852Z,75.09
2023-03-27T08:04:14.703Z,74.74
2023-03-27T08:05:14.826Z,75.05
2023-03-27T08:06:14.639Z,75.26
2023-03-27T08:07:14.644Z,75.36
2023-03-27T08:08:14.606Z,75.12
2023-03-27T08:09:14.616Z,74.29
2023-03-27T08:10:14.608Z,74.29
2023-03-27T08:11:27.323Z,74.02
2023-03-27T08:12:16.522Z,74.36
2023-03-27T08:13:15.568Z,74.77
2023-03-27T08:14:14.534Z,75.32
2023-03-27T08:15:14.564Z,75.60
2023-03-27T08:16:14.548Z,75.71
2023-03-27T08:17:15.913Z,75.09
2023-03-27T08:18:14.534Z,75.29
2023-03-27T08:19:14.505Z,75.78
2023-03-27T08:20:14.480Z,75.46
2023-03-27T08:21:14.491Z,75.12
2023-03-27T08:22:14.475Z,74.50
2023-03-27T08:23:14.466Z,73.98
2023-03-27T08:24:14.434Z,73.77
2023-03-27T08:25:14.441Z,73.25
2023-03-27T08:26:14.411Z,73.36
2023-03-27T08:27:14.424Z,73.54
2023-03-27T08:28:14.398Z,73.12
2023-03-27T08:29:14.389Z,72.74
2023-03-27T08:30:15.568Z,72.43
2023-03-27T08:31:14.452Z,72.22
2023-03-27T08:32:14.342Z,72.77
2023-03-27T08:33:14.362Z,72.56
2023-03-27T08:34:14.394Z,72.81
2023-03-27T08:35:14.330Z,73.53
2023-03-27T08:36:14.436Z,73.63
2023-03-27T08:37:14.295Z,73.63
2023-03-27T08:38:25.754Z,72.77
2023-03-27T08:39:15.301Z,72.46
2023-03-27T08:40:14.269Z,72.36
2023-03-27T08:41:14.285Z,71.63
2023-03-27T08:42:14.244Z,71.60
2023-03-27T08:43:15.202Z,71.91
2023-03-27T08:44:14.234Z,71.67
2023-03-27T08:45:14.253Z,71.05
2023-03-27T08:46:14.202Z,71.08
2023-03-27T08:47:14.210Z,71.19
2023-03-27T08:48:14.174Z,71.08
2023-03-27T08:49:14.181Z,71.19
2023-03-27T08:50:14.140Z,70.67
2023-03-27T08:51:14.157Z,70.36
2023-03-27T08:52:14.109Z,70.53
2023-03-27T08:53:14.164Z,70.87
2023-03-27T08:54:14.109Z,71.39
2023-03-27T08:55:14.125Z,71.47
2023-03-27T08:56:14.121Z,70.95
2023-03-27T08:57:14.146Z,70.74
2023-03-27T08:58:14.067Z,70.84
2023-03-27T08:59:16.165Z,70.74
2023-03-27T09:00:14.056Z,70.64
2023-03-27T09:01:14.354Z,70.57
2023-03-27T09:02:14.044Z,70.67
2023-03-27T09:03:14.156Z,70.53
2023-03-27T09:04:13.993Z,70.36
2023-03-27T09:05:14.031Z,69.95
2023-03-27T09:06:13.991Z,70.15
2023-03-27T09:07:14.939Z,69.95
2023-03-27T09:08:13.943Z,70.15
2023-03-27T09:09:13.949Z,70.22
2023-03-27T09:10:13.940Z,69.60
2023-03-27T09:11:14.920Z,69.40
2023-03-27T09:12:13.929Z,69.50
2023-03-27T09:13:13.915Z,68.98
2023-03-27T09:14:13.868Z,68.77
2023-03-27T09:15:13.935Z,69.26
2023-03-27T09:16:13.894Z,69.06
2023-03-27T09:17:13.874Z,68.95
2023-03-27T09:18:13.858Z,68.61
2023-03-27T09:19:13.865Z,67.88
2023-03-27T09:20:13.812Z,68.40
2023-03-27T09:21:13.864Z,68.40
2023-03-27T09:22:13.833Z,68.51
2023-03-27T09:23:13.832Z,68.43
2023-03-27T09:24:13.796Z,68.54
2023-03-27T09:25:13.782Z,68.43
2023-03-27T09:26:13.754Z,69.06
2023-03-27T09:27:13.792Z,68.85
2023-03-27T09:28:13.775Z,68.64
2023-03-27T09:29:13.771Z,67.82
2023-03-27T09:30:14.706Z,68.57
2023-03-27T09:31:13.745Z,69.29
2023-03-27T09:32:13.732Z,69.40
2023-03-27T09:33:13.815Z,69.81
2023-03-27T09:34:13.661Z,69.81
2023-03-27T09:35:13.697Z,69.47
2023-03-27T09:36:13.650Z,68.77
2023-03-27T09:37:13.675Z,68.88
2023-03-27T09:38:13.684Z,68.26
2023-03-27T09:39:14.614Z,68.57
2023-03-27T09:40:13.624Z,69.29
2023-03-27T09:41:13.577Z,69.60
2023-03-27T09:42:13.623Z,69.92
2023-03-27T09:43:13.557Z,69.40
2023-03-27T09:44:13.587Z,69.37
2023-03-27T09:45:13.553Z,69.06
2023-03-27T09:46:13.650Z,69.16
2023-03-27T09:47:13.546Z,68.33
2023-03-27T09:48:13.553Z,67.91
2023-03-27T09:49:13.528Z,68.12
2023-03-27T09:50:13.521Z,67.61
2023-03-27T09:51:13.507Z,66.26
2023-03-27T09:52:13.584Z,66.06
2023-03-27T09:53:13.509Z,66.19
2023-03-27T09:54:13.501Z,66.19
2023-03-27T09:55:13.443Z,66.26
2023-03-27T09:56:13.473Z,65.51
2023-03-27T09:57:13.476Z,64.24
2023-03-27T09:58:13.477Z,64.03
2023-03-27T09:59:13.409Z,63.93
2023-03-27T10:00:13.441Z,63.69
2023-03-27T10:01:13.498Z,63.15
2023-03-27T10:02:13.410Z,62.25
2023-03-27T10:03:13.443Z,61.63
2023-03-27T10:04:13.450Z,61.32
2023-03-27T10:05:13.321Z,61.52
2023-03-27T10:06:13.333Z,62.07
2023-03-27T10:07:14.262Z,62.27
2023-03-27T10:08:14.513Z,62.35
2023-03-27T10:09:13.290Z,61.87
2023-03-27T10:10:13.316Z,62.17
2023-03-27T10:11:13.269Z,62.38
2023-03-27T10:12:13.277Z,62.35
2023-03-27T10:13:13.270Z,62.66
2023-03-27T10:14:13.277Z,62.97
2023-03-27T10:15:13.924Z,62.87
2023-03-27T10:16:13.273Z,63.79
2023-03-27T10:17:13.224Z,64.52
2023-03-27T10:18:13.293Z,65.58
2023-03-27T10:19:13.177Z,66.51
2023-03-27T10:20:13.224Z,67.34
2023-03-27T10:21:13.173Z,67.47
2023-03-27T10:22:14.382Z,67.37
2023-03-27T10:23:13.224Z,68.54
2023-03-27T10:24:13.176Z,69.88
2023-03-27T10:25:13.107Z,71.47
2023-03-27T10:26:13.128Z,73.36
2023-03-27T10:27:13.100Z,74.60
2023-03-27T10:28:13.110Z,75.78
2023-03-27T10:29:13.096Z,76.43
2023-03-27T10:30:13.079Z,77.36
2023-03-27T10:31:13.106Z,77.40
2023-03-27T10:32:13.133Z,78.12
2023-03-27T10:33:13.112Z,78.12
2023-03-27T10:34:13.065Z,78.23
2023-03-27T10:35:12.990Z,77.67
2023-03-27T10:36:13.045Z,78.19
2023-03-27T10:37:12.983Z,78.50
2023-03-27T10:38:12.992Z,77.74
2023-03-27T10:39:13.031Z,76.98
2023-03-27T10:40:12.960Z,76.84
2023-03-27T10:41:12.924Z,75.46
2023-03-27T10:42:12.952Z,74.33
2023-03-27T10:43:13.015Z,73.91
2023-03-27T10:44:12.938Z,73.81
2023-03-27T10:45:12.876Z,74.43
2023-03-27T10:46:12.960Z,74.43
2023-03-27T10:47:12.897Z,74.95
2023-03-27T10:48:12.909Z,75.36
2023-03-27T10:49:12.860Z,75.57
2023-03-27T10:50:12.884Z,75.22
2023-03-27T10:51:12.823Z,73.57
2023-03-27T10:52:12.859Z,73.22
2023-03-27T10:53:12.884Z,72.40
2023-03-27T10:54:12.887Z,72.09
2023-03-27T10:55:12.832Z,72.09
2023-03-27T10:56:13.759Z,71.54
2023-03-27T10:57:12.808Z,71.12
2023-03-27T10:58:12.802Z,71.75
2023-03-27T10:59:12.730Z,73.91
2023-03-27T11:00:12.791Z,75.29
2023-03-27T11:01:12.758Z,76.01
2023-03-27T11:02:12.725Z,76.32
2023-03-27T11:03:13.713Z,76.18
2023-03-27T11:04:12.998Z,76.50
2023-03-27T11:05:12.674Z,75.87
2023-03-27T11:06:12.680Z,75.63
2023-03-27T11:07:13.857Z,75.12
2023-03-27T11:08:12.662Z,74.77
2023-03-27T11:09:12.647Z,73.74
2023-03-27T11:10:12.727Z,72.61
2023-03-27T11:11:12.629Z,72.40
2023-03-27T11:12:12.627Z,72.61
2023-03-27T11:13:12.608Z,72.06
2023-03-27T11:14:12.625Z,72.16
2023-03-27T11:15:12.550Z,71.55
2023-03-27T11:16:12.590Z,69.51
2023-03-27T11:17:12.536Z,68.59
2023-03-27T11:18:12.578Z,66.42
2023-03-27T11:19:12.556Z,67.14
2023-03-27T11:20:12.588Z,66.73
2023-03-27T11:21:12.490Z,67.03
2023-03-27T11:22:12.509Z,66.60
2023-03-27T11:23:12.477Z,66.31
2023-03-27T11:24:12.484Z,65.98
2023-03-27T11:25:12.441Z,65.67
2023-03-27T11:26:12.498Z,65.84
2023-03-27T11:27:13.928Z,66.36
2023-03-27T11:28:12.444Z,66.67
2023-03-27T11:29:12.430Z,67.42
2023-03-27T11:30:12.437Z,67.83
2023-03-27T11:31:13.201Z,65.28
2023-03-27T11:32:12.392Z,64.70
2023-03-27T11:33:12.379Z,65.14
2023-03-27T11:34:12.358Z,66.51
2023-03-27T11:35:12.355Z,67.03
2023-03-27T11:36:12.362Z,66.64
2023-03-27T11:37:12.323Z,66.44
2023-03-27T11:38:12.344Z,66.23
2023-03-27T11:39:12.309Z,65.89
2023-03-27T11:40:12.404Z,65.48
2023-03-27T11:41:14.545Z,65.66
2023-03-27T11:42:12.311Z,63.39
2023-03-27T11:43:12.258Z,63.97
2023-03-27T11:44:12.282Z,64.39
2023-03-27T11:45:12.264Z,62.29
2023-03-27T11:46:12.300Z,62.50
2023-03-27T11:47:12.216Z,60.95
2023-03-27T11:48:13.253Z,61.24
2023-03-27T11:49:12.179Z,61.85
2023-03-27T11:50:12.243Z,62.26
2023-03-27T11:51:12.174Z,62.34
2023-03-27T11:52:12.203Z,63.24
2023-03-27T11:53:12.146Z,63.75
2023-03-27T11:54:12.211Z,63.13
2023-03-27T11:55:12.179Z,61.59
2023-03-27T11:56:12.154Z,61.38
2023-03-27T11:57:12.181Z,59.84
2023-03-27T11:58:12.148Z,56.16
2023-03-27T11:59:12.070Z,55.43
2023-03-27T12:00:13.065Z,54.51
2023-03-27T12:01:12.053Z,55.13
2023-03-27T12:02:12.093Z,54.82
2023-03-27T12:03:12.079Z,55.15
2023-03-27T12:04:12.084Z,54.94
2023-03-27T12:05:12.002Z,55.13
2023-03-27T12:06:12.044Z,55.13
2023-03-27T12:07:12.422Z,55.33
2023-03-27T12:08:12.003Z,54.92
2023-03-27T12:09:11.981Z,55.93
2023-03-27T12:10:12.004Z,55.69
2023-03-27T12:11:11.953Z,55.90
2023-03-27T12:12:11.960Z,53.53
2023-03-27T12:13:11.928Z,54.05
2023-03-27T12:14:18.378Z,54.02
2023-03-27T12:15:12.973Z,53.30
2023-03-27T12:16:12.891Z,53.71
2023-03-27T12:17:11.880Z,52.99
2023-03-27T12:18:11.937Z,53.81
2023-03-27T12:19:25.119Z,53.61
2023-03-27T12:20:12.902Z,52.69
2023-03-27T12:21:11.840Z,52.89
2023-03-27T12:22:22.751Z,52.06
2023-03-27T12:23:12.823Z,51.55
2023-03-27T12:24:11.844Z,52.56
2023-03-27T12:25:11.801Z,52.56
2023-03-27T12:26:11.840Z,52.86
2023-03-27T12:27:11.760Z,51.73
2023-03-27T12:28:22.145Z,50.70
2023-03-27T12:29:23.877Z,50.91
2023-03-27T12:30:12.777Z,51.84
2023-03-27T12:31:11.719Z,51.81
2023-03-27T12:32:12.807Z,52.25
2023-03-27T12:33:11.732Z,52.25
2023-03-27T12:34:11.739Z,52.25
2023-03-27T12:35:12.430Z,52.14
2023-03-27T12:36:11.775Z,52.56
2023-03-27T12:37:11.678Z,53.07
2023-03-27T12:38:11.679Z,52.06
2023-03-27T12:39:11.637Z,52.50
2023-03-27T12:40:11.672Z,53.02
2023-03-27T12:41:12.577Z,52.94
2023-03-27T12:42:11.673Z,52.66
2023-03-27T12:43:11.616Z,52.34
2023-03-27T12:44:11.602Z,53.48
2023-03-27T12:45:11.580Z,54.33
2023-03-27T12:46:11.590Z,54.64
2023-03-27T12:47:11.637Z,55.36
2023-03-27T12:48:11.635Z,56.00
2023-03-27T12:49:11.541Z,56.29
2023-03-27T12:50:11.546Z,55.36
2023-03-27T12:51:11.531Z,55.98
2023-03-27T12:52:12.999Z,56.39